Aviation Digital Data Service (ADDS)

Output produced by METARs form (0843 UTC 22 November 2014)
found at http://aviationweather.gov/adds/metars/
 
KSWF 220830Z 2209/2312 VRB04KT P6SM SKC 
     FM221400 24008KT P6SM FEW250 
     FM221800 24013G20KT P6SM SCT250 
     FM222200 24008KT P6SM BKN035 BKN050 
     FM230500 25005KT P6SM BKN070 AMD NOT SKED